createdAt,value
2017-08-24T00:01:33.647Z,17.00
2017-08-24T00:04:01.188Z,16.90
2017-08-24T00:06:29.277Z,17.10
2017-08-24T00:08:56.824Z,16.80
2017-08-24T00:11:24.419Z,16.70
2017-08-24T00:13:51.980Z,16.70
2017-08-24T00:16:19.500Z,16.90
2017-08-24T00:18:47.016Z,16.90
2017-08-24T00:21:14.560Z,17.10
2017-08-24T00:23:42.087Z,17.10
2017-08-24T00:26:10.405Z,16.90
2017-08-24T00:28:37.920Z,16.90
2017-08-24T00:31:05.484Z,16.90
2017-08-24T00:33:33.013Z,16.90
2017-08-24T00:36:00.528Z,16.90
2017-08-24T00:38:28.075Z,16.90
2017-08-24T00:40:55.627Z,16.70
2017-08-24T00:43:23.920Z,16.70
2017-08-24T00:45:51.452Z,16.60
2017-08-24T00:48:19.032Z,16.70
2017-08-24T00:50:46.573Z,16.80
2017-08-24T00:53:14.088Z,16.70
2017-08-24T00:55:41.633Z,16.70
2017-08-24T00:58:09.149Z,16.70
2017-08-24T01:00:36.733Z,16.60
2017-08-24T01:03:04.246Z,16.60
2017-08-24T01:05:31.875Z,16.70
2017-08-24T01:07:59.392Z,16.80
2017-08-24T01:10:26.969Z,16.80
2017-08-24T01:12:54.490Z,16.70
2017-08-24T01:15:22.082Z,16.70
2017-08-24T01:17:49.643Z,16.80
2017-08-24T01:20:17.176Z,16.80
2017-08-24T01:22:44.738Z,16.80
2017-08-24T01:25:12.567Z,16.90
2017-08-24T01:27:40.079Z,16.80
2017-08-24T01:30:07.591Z,16.70
2017-08-24T01:32:35.155Z,16.80
2017-08-24T01:35:02.683Z,16.90
2017-08-24T01:37:30.264Z,16.90
2017-08-24T01:39:57.808Z,16.80
2017-08-24T01:42:25.324Z,16.80
2017-08-24T01:44:52.909Z,16.90
2017-08-24T01:47:20.433Z,16.80
2017-08-24T01:49:47.993Z,16.90
2017-08-24T01:52:15.531Z,16.80
2017-08-24T01:54:43.160Z,16.80
2017-08-24T01:57:10.712Z,16.80
2017-08-24T01:59:38.242Z,16.90
2017-08-24T02:02:05.813Z,16.70
2017-08-24T02:04:33.361Z,16.70
2017-08-24T02:07:00.922Z,16.60
2017-08-24T02:09:28.448Z,16.70
2017-08-24T02:11:56.022Z,16.70
2017-08-24T02:14:23.576Z,16.80
2017-08-24T02:16:51.116Z,16.70
2017-08-24T02:19:18.636Z,16.70
2017-08-24T02:21:46.222Z,16.80
2017-08-24T02:24:13.751Z,16.60
2017-08-24T02:26:41.297Z,16.70
2017-08-24T02:29:08.812Z,16.70
2017-08-24T02:31:36.367Z,16.80
2017-08-24T02:34:03.942Z,16.70
2017-08-24T02:36:31.535Z,16.70
2017-08-24T02:38:59.057Z,16.70
2017-08-24T02:41:26.768Z,16.70
2017-08-24T02:43:54.285Z,16.70
2017-08-24T02:46:21.847Z,16.70
2017-08-24T02:48:49.489Z,16.70
2017-08-24T02:51:17.046Z,16.80
2017-08-24T02:53:44.603Z,16.80
2017-08-24T02:56:12.136Z,16.70
2017-08-24T02:58:39.648Z,16.80
2017-08-24T03:01:07.190Z,16.70
2017-08-24T03:03:34.732Z,16.70
2017-08-24T03:06:02.317Z,16.70
2017-08-24T03:08:29.881Z,16.70
2017-08-24T03:10:57.404Z,16.70
2017-08-24T03:13:24.923Z,16.70
2017-08-24T03:15:52.521Z,16.90
2017-08-24T03:18:20.036Z,16.80
2017-08-24T03:20:47.565Z,16.80
2017-08-24T03:23:15.110Z,16.90
2017-08-24T03:25:42.763Z,16.80
2017-08-24T03:28:10.304Z,16.60
2017-08-24T03:30:37.817Z,16.50
2017-08-24T03:33:05.368Z,16.50
2017-08-24T03:35:32.880Z,16.60
2017-08-24T03:38:00.439Z,16.80
2017-08-24T03:40:27.988Z,16.90
2017-08-24T03:42:55.523Z,16.70
2017-08-24T03:45:23.036Z,16.60
2017-08-24T03:47:50.593Z,16.70
2017-08-24T03:50:18.152Z,16.70
2017-08-24T03:52:45.677Z,16.70
2017-08-24T03:55:13.272Z,16.60
2017-08-24T03:57:40.788Z,16.60
2017-08-24T04:00:08.332Z,16.60
2017-08-24T04:02:35.865Z,16.60
2017-08-24T04:05:03.428Z,16.70
2017-08-24T04:07:30.976Z,16.70
2017-08-24T04:09:58.539Z,16.70
2017-08-24T04:12:26.100Z,16.70
2017-08-24T04:14:53.613Z,16.60
2017-08-24T04:17:21.129Z,16.70
2017-08-24T04:19:48.668Z,16.60
2017-08-24T04:22:16.186Z,16.50
2017-08-24T04:24:43.728Z,16.60
2017-08-24T04:27:11.288Z,16.60
2017-08-24T04:29:38.806Z,16.60
2017-08-24T04:32:06.349Z,16.60
2017-08-24T04:34:33.956Z,16.60
2017-08-24T04:37:01.516Z,16.60
2017-08-24T04:39:29.034Z,16.50
2017-08-24T04:41:56.550Z,16.50
2017-08-24T04:44:24.129Z,16.50
2017-08-24T04:46:51.634Z,16.60
2017-08-24T04:49:19.157Z,16.60
2017-08-24T04:51:46.705Z,16.60
2017-08-24T04:54:14.240Z,16.60
2017-08-24T04:56:41.823Z,16.70
2017-08-24T04:59:09.351Z,16.80
2017-08-24T05:01:36.874Z,16.90
2017-08-24T05:04:04.415Z,16.90
2017-08-24T05:06:31.944Z,17.00
2017-08-24T05:08:59.520Z,17.00
2017-08-24T05:11:27.031Z,17.10
2017-08-24T05:13:54.578Z,17.20
2017-08-24T05:16:22.152Z,17.30
2017-08-24T05:18:49.725Z,17.30
2017-08-24T05:21:17.242Z,17.40
2017-08-24T05:23:44.756Z,17.60
2017-08-24T05:26:13.061Z,17.60
2017-08-24T05:28:40.618Z,17.50
2017-08-24T05:31:08.164Z,17.60
2017-08-24T05:33:35.714Z,17.60
2017-08-24T05:36:03.224Z,17.50
2017-08-24T05:38:30.775Z,17.60
2017-08-24T05:40:58.292Z,17.60
2017-08-24T05:43:25.816Z,17.50
2017-08-24T05:45:53.388Z,17.60
2017-08-24T05:48:20.937Z,17.80
2017-08-24T05:50:48.456Z,17.70
2017-08-24T05:53:16.036Z,17.70
2017-08-24T05:55:43.545Z,17.70
2017-08-24T05:58:11.093Z,17.90
2017-08-24T06:00:38.653Z,18.20
2017-08-24T06:03:06.217Z,18.40
2017-08-24T06:05:33.765Z,18.60
2017-08-24T06:08:01.279Z,18.90
2017-08-24T06:10:28.821Z,19.00
2017-08-24T06:12:56.338Z,19.20
2017-08-24T06:15:23.881Z,19.20
2017-08-24T06:17:51.401Z,19.30
2017-08-24T06:20:19.019Z,19.50
2017-08-24T06:22:46.584Z,19.50
2017-08-24T06:25:14.096Z,19.50
2017-08-24T06:27:41.644Z,19.60
2017-08-24T06:30:09.200Z,19.80
2017-08-24T06:32:36.749Z,20.10
2017-08-24T06:35:04.406Z,20.20
2017-08-24T06:37:32.026Z,20.30
2017-08-24T06:39:59.569Z,20.40
2017-08-24T06:42:27.139Z,20.50
2017-08-24T06:44:54.656Z,20.50
2017-08-24T06:47:22.200Z,20.60
2017-08-24T06:49:49.769Z,20.70
2017-08-24T06:52:17.355Z,20.80
2017-08-24T06:54:44.905Z,21.10
2017-08-24T06:57:12.426Z,21.20
2017-08-24T06:59:39.940Z,21.60
2017-08-24T07:02:07.500Z,21.70
2017-08-24T07:04:35.012Z,21.80
2017-08-24T07:07:02.537Z,21.80
2017-08-24T07:09:30.168Z,21.90
2017-08-24T07:11:57.686Z,21.90
2017-08-24T07:14:25.302Z,22.00
2017-08-24T07:16:52.837Z,22.00
2017-08-24T07:19:20.363Z,22.10
2017-08-24T07:21:48.039Z,22.50
2017-08-24T07:24:15.596Z,22.60
2017-08-24T07:26:43.105Z,23.00
2017-08-24T07:29:10.690Z,23.10
2017-08-24T07:31:38.198Z,23.30
2017-08-24T07:34:05.716Z,23.50
2017-08-24T07:36:33.255Z,23.70
2017-08-24T07:39:00.805Z,23.90
2017-08-24T07:41:28.370Z,23.90
2017-08-24T07:43:55.906Z,24.10
2017-08-24T07:46:23.421Z,23.70
2017-08-24T07:48:51.144Z,23.40
2017-08-24T07:51:18.660Z,23.90
2017-08-24T07:53:46.189Z,23.90
2017-08-24T07:56:13.744Z,24.00
2017-08-24T07:58:41.312Z,24.30
2017-08-24T08:01:08.833Z,24.70
2017-08-24T08:03:36.361Z,24.90
2017-08-24T08:06:03.932Z,25.10
2017-08-24T08:08:31.444Z,25.30
2017-08-24T08:10:59.058Z,25.60
2017-08-24T08:13:26.600Z,26.00
2017-08-24T08:15:54.141Z,26.00
2017-08-24T08:18:21.666Z,26.20
2017-08-24T08:20:49.260Z,26.00
2017-08-24T08:23:16.845Z,26.20
2017-08-24T08:25:44.476Z,26.50
2017-08-24T08:28:11.989Z,26.60
2017-08-24T08:30:39.576Z,26.80
2017-08-24T08:33:07.124Z,27.10
2017-08-24T08:35:34.640Z,27.40
2017-08-24T08:38:02.184Z,27.80
2017-08-24T08:40:29.751Z,28.20
2017-08-24T08:42:57.268Z,28.20
2017-08-24T08:45:24.849Z,28.50
2017-08-24T08:47:52.412Z,28.60
2017-08-24T08:50:19.964Z,28.80
2017-08-24T08:52:47.491Z,29.00
2017-08-24T08:55:15.057Z,29.10
2017-08-24T08:57:42.576Z,29.10
2017-08-24T09:00:10.145Z,29.20
2017-08-24T09:02:37.764Z,29.30
2017-08-24T09:05:05.288Z,29.30
2017-08-24T09:07:32.844Z,29.30
2017-08-24T09:10:00.349Z,29.40
2017-08-24T09:12:27.878Z,29.40
2017-08-24T09:14:55.625Z,29.40
2017-08-24T09:17:23.128Z,29.50
2017-08-24T09:19:50.709Z,29.40
2017-08-24T09:22:18.424Z,29.50
2017-08-24T09:24:45.964Z,29.70
2017-08-24T09:27:13.511Z,29.90
2017-08-24T09:29:41.044Z,30.00
2017-08-24T09:32:08.608Z,30.20
2017-08-24T09:34:36.151Z,30.30
2017-08-24T09:37:03.655Z,30.30
2017-08-24T09:39:31.194Z,30.30
2017-08-24T09:41:58.803Z,30.60
2017-08-24T09:44:26.339Z,30.80
2017-08-24T09:46:53.869Z,30.90
2017-08-24T09:49:21.423Z,30.90
2017-08-24T09:51:48.961Z,30.90
2017-08-24T09:54:16.484Z,30.90
2017-08-24T09:56:44.028Z,31.00
2017-08-24T09:59:11.552Z,31.00
2017-08-24T10:01:39.146Z,31.10
2017-08-24T10:04:06.736Z,31.20
2017-08-24T10:06:34.294Z,31.20
2017-08-24T10:09:01.804Z,31.50
2017-08-24T10:11:29.356Z,31.40
2017-08-24T10:13:56.882Z,31.30
2017-08-24T10:16:24.496Z,31.50
2017-08-24T10:18:52.048Z,31.50
2017-08-24T10:21:19.568Z,31.60
2017-08-24T10:23:47.166Z,31.70
2017-08-24T10:26:14.690Z,31.70
2017-08-24T10:28:42.386Z,31.90
2017-08-24T10:31:09.951Z,31.70
2017-08-24T10:33:37.444Z,31.80
2017-08-24T10:36:04.955Z,31.90
2017-08-24T10:38:32.565Z,32.20
2017-08-24T10:41:00.170Z,32.20
2017-08-24T10:43:27.684Z,32.20
2017-08-24T10:45:55.252Z,32.30
2017-08-24T10:48:22.788Z,32.40
2017-08-24T10:50:50.312Z,32.60
2017-08-24T10:53:17.916Z,32.60
2017-08-24T10:55:45.435Z,32.80
2017-08-24T10:58:12.963Z,32.80
2017-08-24T11:00:40.584Z,33.00
2017-08-24T11:03:08.124Z,32.80
2017-08-24T11:05:35.640Z,32.60
2017-08-24T11:08:03.508Z,32.70
2017-08-24T11:10:31.049Z,32.90
2017-08-24T11:12:58.628Z,32.90
2017-08-24T11:15:26.145Z,32.90
2017-08-24T11:17:53.661Z,32.80
2017-08-24T11:20:21.208Z,32.70
2017-08-24T11:22:48.788Z,32.60
2017-08-24T11:25:16.509Z,32.90
2017-08-24T11:27:44.193Z,32.80
2017-08-24T11:30:11.705Z,32.60
2017-08-24T11:32:39.266Z,32.90
2017-08-24T11:35:06.871Z,33.20
2017-08-24T11:37:34.463Z,33.10
2017-08-24T11:40:02.019Z,33.20
2017-08-24T11:42:29.563Z,33.20
2017-08-24T11:44:57.173Z,33.50
2017-08-24T11:47:24.696Z,33.60
2017-08-24T11:49:52.279Z,33.60
2017-08-24T11:52:19.833Z,33.60
2017-08-24T11:54:47.400Z,33.50
2017-08-24T11:57:14.970Z,33.50
2017-08-24T11:59:42.491Z,33.40
2017-08-24T12:02:10.100Z,33.30
2017-08-24T12:04:37.709Z,33.50
2017-08-24T12:07:05.240Z,33.60
2017-08-24T12:09:32.789Z,33.30
2017-08-24T12:12:00.311Z,33.30
2017-08-24T12:14:27.872Z,33.40
2017-08-24T12:16:55.477Z,33.20
2017-08-24T12:19:23.039Z,33.30
2017-08-24T12:21:50.678Z,33.50
2017-08-24T12:24:18.241Z,33.40
2017-08-24T12:26:45.805Z,33.40
2017-08-24T12:29:13.561Z,33.40
2017-08-24T12:31:41.143Z,33.30
2017-08-24T12:34:08.657Z,33.00
2017-08-24T12:36:36.224Z,32.90
2017-08-24T12:39:03.764Z,32.80
2017-08-24T12:41:31.291Z,32.70
2017-08-24T12:43:58.957Z,32.50
2017-08-24T12:46:26.491Z,32.60
2017-08-24T12:48:54.011Z,32.40
2017-08-24T12:51:21.559Z,32.50
2017-08-24T12:53:49.132Z,32.50
2017-08-24T12:56:16.882Z,32.30
2017-08-24T12:58:44.421Z,32.20
2017-08-24T13:01:12.157Z,32.00
2017-08-24T13:03:39.653Z,31.80
2017-08-24T13:06:07.264Z,31.60
2017-08-24T13:08:34.911Z,31.30
2017-08-24T13:11:02.480Z,31.10
2017-08-24T13:13:30.043Z,30.80
2017-08-24T13:15:57.628Z,30.60
2017-08-24T13:18:25.159Z,30.40
2017-08-24T13:20:52.679Z,30.40
2017-08-24T13:23:20.300Z,30.30
2017-08-24T13:25:48.398Z,30.30
2017-08-24T13:28:15.911Z,30.10
2017-08-24T13:30:43.489Z,30.00
2017-08-24T13:33:11.064Z,29.80
2017-08-24T13:35:38.591Z,29.80
2017-08-24T13:38:06.108Z,29.80
2017-08-24T13:40:33.671Z,29.80
2017-08-24T13:43:01.223Z,29.60
2017-08-24T13:45:28.767Z,29.40
2017-08-24T13:47:56.320Z,29.40
2017-08-24T13:50:23.840Z,29.50
2017-08-24T13:52:51.371Z,29.50
2017-08-24T13:55:18.968Z,29.50
2017-08-24T13:57:46.583Z,29.50
2017-08-24T14:00:14.176Z,29.40
2017-08-24T14:02:41.699Z,29.30
2017-08-24T14:05:09.219Z,29.40
2017-08-24T14:07:36.767Z,29.50
2017-08-24T14:10:04.288Z,29.40
2017-08-24T14:12:31.963Z,29.30
2017-08-24T14:14:59.765Z,29.10
2017-08-24T14:17:27.278Z,28.90
2017-08-24T14:19:54.804Z,28.80
2017-08-24T14:22:22.384Z,28.90
2017-08-24T14:24:49.905Z,28.90
2017-08-24T14:27:17.414Z,28.70
2017-08-24T14:29:44.970Z,28.60
2017-08-24T14:32:12.484Z,28.60
2017-08-24T14:34:40.033Z,28.60
2017-08-24T14:37:07.628Z,28.50
2017-08-24T14:39:35.196Z,28.60
2017-08-24T14:42:02.712Z,28.70
2017-08-24T14:44:30.299Z,28.60
2017-08-24T14:46:57.848Z,28.40
2017-08-24T14:49:25.364Z,28.60
2017-08-24T14:51:53.092Z,28.50
2017-08-24T14:54:20.604Z,28.40
2017-08-24T14:56:48.151Z,28.40
2017-08-24T14:59:15.684Z,28.30
2017-08-24T15:01:43.237Z,28.30
2017-08-24T15:04:10.863Z,28.20
2017-08-24T15:06:38.396Z,28.10
2017-08-24T15:09:05.968Z,28.20
2017-08-24T15:11:33.484Z,28.10
2017-08-24T15:14:01.007Z,28.20
2017-08-24T15:16:28.574Z,28.10
2017-08-24T15:18:56.128Z,28.10
2017-08-24T15:21:23.764Z,28.00
2017-08-24T15:23:51.392Z,28.10
2017-08-24T15:26:18.950Z,28.10
2017-08-24T15:28:46.503Z,28.20
2017-08-24T15:31:14.015Z,28.20
2017-08-24T15:33:41.593Z,28.20
2017-08-24T15:36:09.115Z,28.20
2017-08-24T15:38:36.698Z,28.10
2017-08-24T15:41:04.291Z,28.00
2017-08-24T15:43:31.861Z,27.90
2017-08-24T15:45:59.392Z,27.70
2017-08-24T15:48:26.960Z,27.70
2017-08-24T15:50:54.468Z,27.60
2017-08-24T15:53:21.997Z,27.70
2017-08-24T15:55:49.569Z,27.60
2017-08-24T15:58:17.079Z,27.60
2017-08-24T16:00:44.658Z,27.50
2017-08-24T16:03:12.200Z,27.70
2017-08-24T16:05:39.731Z,27.50
2017-08-24T16:08:07.284Z,27.50
2017-08-24T16:10:34.804Z,27.50
2017-08-24T16:13:03.205Z,27.40
2017-08-24T16:15:30.740Z,27.30
2017-08-24T16:17:58.327Z,27.20
2017-08-24T16:20:25.856Z,27.10
2017-08-24T16:22:53.416Z,27.10
2017-08-24T16:25:20.967Z,26.90
2017-08-24T16:27:48.480Z,26.80
2017-08-24T16:30:15.989Z,26.70
2017-08-24T16:32:43.547Z,26.70
2017-08-24T16:35:11.075Z,26.70
2017-08-24T16:37:38.619Z,26.50
2017-08-24T16:40:06.188Z,26.40
2017-08-24T16:42:33.705Z,26.40
2017-08-24T16:45:01.223Z,26.30
2017-08-24T16:47:28.829Z,26.20
2017-08-24T16:49:58.360Z,26.10
2017-08-24T16:52:25.975Z,26.00
2017-08-24T16:54:53.517Z,25.80
2017-08-24T16:57:21.044Z,25.80
2017-08-24T16:59:48.617Z,26.00
2017-08-24T17:02:16.132Z,25.80
2017-08-24T17:04:43.683Z,25.60
2017-08-24T17:07:11.277Z,25.50
2017-08-24T17:09:38.815Z,25.30
2017-08-24T17:12:06.352Z,25.20
2017-08-24T17:14:33.972Z,25.10
2017-08-24T17:17:01.485Z,25.00
2017-08-24T17:19:29.032Z,24.90
2017-08-24T17:21:56.592Z,24.80
2017-08-24T17:24:24.172Z,24.70
2017-08-24T17:26:52.707Z,24.60
2017-08-24T17:29:20.383Z,24.50
2017-08-24T17:31:48.014Z,24.40
2017-08-24T17:34:15.529Z,24.40
2017-08-24T17:36:43.100Z,24.30
2017-08-24T17:39:10.612Z,24.30
2017-08-24T17:41:38.128Z,24.20
2017-08-24T17:44:05.705Z,24.20
2017-08-24T17:46:34.091Z,24.20
2017-08-24T17:49:01.612Z,24.20
2017-08-24T17:51:29.200Z,24.20
2017-08-24T17:53:56.723Z,24.10
2017-08-24T17:56:24.241Z,24.00
2017-08-24T17:58:51.800Z,23.90
2017-08-24T18:01:19.345Z,23.80
2017-08-24T18:03:46.862Z,23.70
2017-08-24T18:06:14.409Z,23.60
2017-08-24T18:08:41.961Z,23.50
2017-08-24T18:11:09.487Z,23.60
2017-08-24T18:13:37.076Z,23.50
2017-08-24T18:16:04.625Z,23.50
2017-08-24T18:18:32.183Z,23.50
2017-08-24T18:20:59.739Z,23.50
2017-08-24T18:23:27.256Z,23.70
2017-08-24T18:25:54.799Z,23.80
2017-08-24T18:28:22.372Z,23.60
2017-08-24T18:30:50.032Z,23.50
2017-08-24T18:33:17.553Z,23.40
2017-08-24T18:35:45.145Z,23.30
2017-08-24T18:38:12.753Z,23.10
2017-08-24T18:40:40.269Z,23.10
2017-08-24T18:43:07.848Z,23.10
2017-08-24T18:45:35.362Z,22.80
2017-08-24T18:48:02.880Z,22.40
2017-08-24T18:50:30.480Z,22.00
2017-08-24T18:52:58.006Z,21.80
2017-08-24T18:55:25.519Z,21.30
2017-08-24T18:57:53.077Z,21.10
2017-08-24T19:00:20.681Z,21.00
2017-08-24T19:02:48.215Z,20.60
2017-08-24T19:05:15.739Z,20.20
2017-08-24T19:07:43.276Z,19.90
2017-08-24T19:10:10.893Z,19.60
2017-08-24T19:12:38.468Z,19.60
2017-08-24T19:15:06.018Z,19.40
2017-08-24T19:17:33.542Z,19.40
2017-08-24T19:20:01.109Z,19.30
2017-08-24T19:22:28.628Z,19.30
2017-08-24T19:24:56.146Z,19.20
2017-08-24T19:27:23.720Z,19.30
2017-08-24T19:29:51.232Z,19.10
2017-08-24T19:32:18.754Z,19.00
2017-08-24T19:34:46.320Z,19.10
2017-08-24T19:37:13.853Z,19.10
2017-08-24T19:39:41.385Z,18.90
2017-08-24T19:42:08.980Z,18.80
2017-08-24T19:44:36.507Z,18.80
2017-08-24T19:47:04.069Z,19.00
2017-08-24T19:49:31.608Z,18.80
2017-08-24T19:51:59.116Z,18.60
2017-08-24T19:54:26.672Z,18.40
2017-08-24T19:56:54.429Z,18.50
2017-08-24T19:59:21.951Z,18.50
2017-08-24T20:01:49.621Z,18.50
2017-08-24T20:04:17.133Z,18.50
2017-08-24T20:06:44.680Z,18.50
2017-08-24T20:09:12.265Z,18.20
2017-08-24T20:11:39.782Z,18.20
2017-08-24T20:14:07.301Z,18.10
2017-08-24T20:16:34.864Z,18.00
2017-08-24T20:19:02.397Z,18.00
2017-08-24T20:21:29.921Z,18.20
2017-08-24T20:23:57.504Z,18.30
2017-08-24T20:26:25.093Z,18.40
2017-08-24T20:28:52.628Z,18.50
2017-08-24T20:31:20.148Z,18.60
2017-08-24T20:33:47.736Z,18.60
2017-08-24T20:36:15.424Z,18.50
2017-08-24T20:38:42.932Z,18.60
2017-08-24T20:41:10.915Z,18.50
2017-08-24T20:43:38.443Z,18.60
2017-08-24T20:46:05.963Z,18.50
2017-08-24T20:48:33.536Z,18.50
2017-08-24T20:51:01.052Z,18.60
2017-08-24T20:53:28.589Z,18.60
2017-08-24T20:55:56.157Z,18.60
2017-08-24T20:58:23.681Z,18.50
2017-08-24T21:00:51.237Z,18.50
2017-08-24T21:03:18.752Z,18.40
2017-08-24T21:05:46.313Z,18.40
2017-08-24T21:08:13.872Z,18.50
2017-08-24T21:10:41.426Z,18.50
2017-08-24T21:13:08.984Z,18.30
2017-08-24T21:15:36.503Z,18.30
2017-08-24T21:18:04.011Z,18.50
2017-08-24T21:20:31.672Z,18.40
2017-08-24T21:22:59.189Z,18.40
2017-08-24T21:25:26.771Z,18.40
2017-08-24T21:27:54.290Z,18.20
2017-08-24T21:30:21.864Z,18.20
2017-08-24T21:32:49.444Z,18.20
2017-08-24T21:35:17.013Z,18.30
2017-08-24T21:37:44.568Z,18.50
2017-08-24T21:40:12.076Z,18.50
2017-08-24T21:42:39.638Z,18.60
2017-08-24T21:45:07.156Z,18.60
2017-08-24T21:47:34.677Z,18.60
2017-08-24T21:50:02.237Z,18.60
2017-08-24T21:52:29.749Z,18.60
2017-08-24T21:54:57.273Z,18.70
2017-08-24T21:57:24.826Z,18.50
2017-08-24T21:59:52.391Z,18.50
2017-08-24T22:02:19.997Z,18.40
2017-08-24T22:04:47.512Z,18.30
2017-08-24T22:07:15.053Z,18.10
2017-08-24T22:09:42.628Z,18.10
2017-08-24T22:12:10.148Z,17.90
2017-08-24T22:14:37.688Z,17.80
2017-08-24T22:17:05.271Z,17.70
2017-08-24T22:19:32.799Z,17.70
2017-08-24T22:22:00.356Z,17.70
2017-08-24T22:24:28.099Z,17.80
2017-08-24T22:26:55.618Z,17.70
2017-08-24T22:29:23.171Z,17.60
2017-08-24T22:31:50.726Z,17.60
2017-08-24T22:34:18.245Z,17.40
2017-08-24T22:36:45.811Z,17.50
2017-08-24T22:39:13.336Z,17.60
2017-08-24T22:41:40.873Z,17.60
2017-08-24T22:44:08.469Z,17.60
2017-08-24T22:46:36.013Z,17.60
2017-08-24T22:49:03.576Z,17.50
2017-08-24T22:51:31.095Z,17.40
2017-08-24T22:57:05.264Z,17.30
2017-08-24T22:59:38.352Z,17.40
2017-08-24T23:02:11.587Z,17.50
2017-08-24T23:04:39.100Z,17.40
2017-08-24T23:07:06.604Z,17.40
2017-08-24T23:09:34.166Z,17.50
2017-08-24T23:12:01.685Z,17.50
2017-08-24T23:14:29.197Z,17.50
2017-08-24T23:16:56.747Z,17.40
2017-08-24T23:19:24.260Z,17.30
2017-08-24T23:21:51.816Z,17.40
2017-08-24T23:24:19.335Z,17.20
2017-08-24T23:26:46.852Z,17.40
2017-08-24T23:29:14.417Z,17.20
2017-08-24T23:31:41.932Z,17.20
2017-08-24T23:34:10.215Z,17.00
2017-08-24T23:36:37.761Z,16.90
2017-08-24T23:39:05.280Z,17.00
2017-08-24T23:41:32.836Z,17.10
2017-08-24T23:44:00.347Z,17.00
2017-08-24T23:46:27.863Z,17.00
2017-08-24T23:48:55.412Z,16.90
2017-08-24T23:51:22.932Z,16.90
2017-08-24T23:53:50.508Z,16.90
2017-08-24T23:56:18.037Z,16.80
2017-08-24T23:58:45.556Z,16.80
